sensor_id;sensor_type;location;lat;lon;timestamp;P1;durP1;ratioP1;P2;durP2;ratioP2
43160;SDS011;40968;52.342;5.528;2023-03-14T00:01:37;25.48;;;6.45;;
43160;SDS011;40968;52.342;5.528;2023-03-14T00:04:04;22.58;;;6.40;;
43160;SDS011;40968;52.342;5.528;2023-03-14T00:06:31;31.38;;;6.40;;
43160;SDS011;40968;52.342;5.528;2023-03-14T00:08:57;27.02;;;6.55;;
43160;SDS011;40968;52.342;5.528;2023-03-14T00:11:24;27.27;;;5.45;;
43160;SDS011;40968;52.342;5.528;2023-03-14T00:13:52;33.13;;;6.18;;
43160;SDS011;40968;52.342;5.528;2023-03-14T00:16:19;35.13;;;6.93;;
43160;SDS011;40968;52.342;5.528;2023-03-14T00:18:46;28.13;;;6.35;;
43160;SDS011;40968;52.342;5.528;2023-03-14T00:21:13;29.30;;;5.90;;
43160;SDS011;40968;52.342;5.528;2023-03-14T00:23:40;31.42;;;6.57;;
43160;SDS011;40968;52.342;5.528;2023-03-14T00:26:09;21.50;;;5.30;;
43160;SDS011;40968;52.342;5.528;2023-03-14T00:28:37;22.25;;;5.32;;
43160;SDS011;40968;52.342;5.528;2023-03-14T00:31:06;26.17;;;5.65;;
43160;SDS011;40968;52.342;5.528;2023-03-14T00:33:34;29.17;;;5.95;;
43160;SDS011;40968;52.342;5.528;2023-03-14T00:36:02;22.90;;;4.97;;
43160;SDS011;40968;52.342;5.528;2023-03-14T00:38:30;32.05;;;6.10;;
43160;SDS011;40968;52.342;5.528;2023-03-14T00:40:57;18.45;;;5.63;;
43160;SDS011;40968;52.342;5.528;2023-03-14T00:43:24;27.50;;;5.20;;
43160;SDS011;40968;52.342;5.528;2023-03-14T00:45:51;33.30;;;5.45;;
43160;SDS011;40968;52.342;5.528;2023-03-14T00:48:20;27.42;;;5.22;;
43160;SDS011;40968;52.342;5.528;2023-03-14T00:50:47;26.45;;;4.35;;
43160;SDS011;40968;52.342;5.528;2023-03-14T00:53:14;33.65;;;6.13;;
43160;SDS011;40968;52.342;5.528;2023-03-14T00:55:41;30.92;;;5.53;;
43160;SDS011;40968;52.342;5.528;2023-03-14T00:58:08;20.83;;;4.78;;
43160;SDS011;40968;52.342;5.528;2023-03-14T01:00:35;22.17;;;5.47;;
43160;SDS011;40968;52.342;5.528;2023-03-14T01:03:02;16.98;;;4.47;;
43160;SDS011;40968;52.342;5.528;2023-03-14T01:05:31;21.23;;;5.28;;
43160;SDS011;40968;52.342;5.528;2023-03-14T01:07:58;21.75;;;4.97;;
43160;SDS011;40968;52.342;5.528;2023-03-14T01:10:25;21.85;;;5.00;;
43160;SDS011;40968;52.342;5.528;2023-03-14T01:12:52;25.20;;;5.32;;
43160;SDS011;40968;52.342;5.528;2023-03-14T01:15:18;20.15;;;5.25;;
43160;SDS011;40968;52.342;5.528;2023-03-14T01:17:45;19.73;;;5.13;;
43160;SDS011;40968;52.342;5.528;2023-03-14T01:20:13;27.00;;;4.43;;
43160;SDS011;40968;52.342;5.528;2023-03-14T01:22:42;17.85;;;4.40;;
43160;SDS011;40968;52.342;5.528;2023-03-14T01:25:11;17.52;;;4.65;;
43160;SDS011;40968;52.342;5.528;2023-03-14T01:27:39;17.25;;;4.13;;
43160;SDS011;40968;52.342;5.528;2023-03-14T01:30:06;16.38;;;3.47;;
43160;SDS011;40968;52.342;5.528;2023-03-14T01:32:33;19.35;;;4.43;;
43160;SDS011;40968;52.342;5.528;2023-03-14T01:35:00;18.25;;;3.67;;
43160;SDS011;40968;52.342;5.528;2023-03-14T01:37:27;10.45;;;2.92;;
43160;SDS011;40968;52.342;5.528;2023-03-14T01:39:55;16.75;;;3.13;;
43160;SDS011;40968;52.342;5.528;2023-03-14T01:42:21;17.67;;;3.65;;
43160;SDS011;40968;52.342;5.528;2023-03-14T01:44:49;14.85;;;3.60;;
43160;SDS011;40968;52.342;5.528;2023-03-14T01:47:17;14.85;;;3.40;;
43160;SDS011;40968;52.342;5.528;2023-03-14T01:49:44;11.60;;;3.40;;
43160;SDS011;40968;52.342;5.528;2023-03-14T01:52:13;11.25;;;3.80;;
43160;SDS011;40968;52.342;5.528;2023-03-14T01:54:44;11.70;;;3.75;;
43160;SDS011;40968;52.342;5.528;2023-03-14T01:57:16;13.95;;;3.63;;
43160;SDS011;40968;52.342;5.528;2023-03-14T01:59:46;17.88;;;3.90;;
43160;SDS011;40968;52.342;5.528;2023-03-14T02:02:18;15.57;;;4.25;;
43160;SDS011;40968;52.342;5.528;2023-03-14T02:04:45;36.83;;;5.15;;
43160;SDS011;40968;52.342;5.528;2023-03-14T02:07:13;15.27;;;3.88;;
43160;SDS011;40968;52.342;5.528;2023-03-14T02:09:43;20.17;;;4.45;;
43160;SDS011;40968;52.342;5.528;2023-03-14T02:12:11;18.23;;;4.20;;
43160;SDS011;40968;52.342;5.528;2023-03-14T02:14:41;20.88;;;4.45;;
43160;SDS011;40968;52.342;5.528;2023-03-14T02:17:13;16.33;;;4.00;;
43160;SDS011;40968;52.342;5.528;2023-03-14T02:19:46;22.88;;;4.72;;
43160;SDS011;40968;52.342;5.528;2023-03-14T02:22:23;26.10;;;4.35;;
43160;SDS011;40968;52.342;5.528;2023-03-14T02:24:53;16.25;;;3.55;;
43160;SDS011;40968;52.342;5.528;2023-03-14T02:27:27;24.88;;;4.38;;
43160;SDS011;40968;52.342;5.528;2023-03-14T02:29:54;15.80;;;4.00;;
43160;SDS011;40968;52.342;5.528;2023-03-14T02:32:25;17.23;;;3.90;;
43160;SDS011;40968;52.342;5.528;2023-03-14T02:34:54;16.60;;;3.67;;
43160;SDS011;40968;52.342;5.528;2023-03-14T02:37:24;18.20;;;4.90;;
43160;SDS011;40968;52.342;5.528;2023-03-14T02:39:53;25.88;;;4.07;;
43160;SDS011;40968;52.342;5.528;2023-03-14T02:42:21;21.77;;;4.00;;
43160;SDS011;40968;52.342;5.528;2023-03-14T02:44:53;15.57;;;4.05;;
43160;SDS011;40968;52.342;5.528;2023-03-14T02:47:22;12.75;;;3.60;;
43160;SDS011;40968;52.342;5.528;2023-03-14T02:49:55;13.60;;;4.40;;
43160;SDS011;40968;52.342;5.528;2023-03-14T02:52:27;15.05;;;3.80;;
43160;SDS011;40968;52.342;5.528;2023-03-14T02:54:54;12.93;;;3.50;;
43160;SDS011;40968;52.342;5.528;2023-03-14T02:57:21;18.92;;;3.88;;
43160;SDS011;40968;52.342;5.528;2023-03-14T02:59:47;17.55;;;3.53;;
43160;SDS011;40968;52.342;5.528;2023-03-14T03:02:15;10.75;;;2.55;;
43160;SDS011;40968;52.342;5.528;2023-03-14T03:04:42;15.93;;;2.95;;
43160;SDS011;40968;52.342;5.528;2023-03-14T03:07:09;13.63;;;2.80;;
43160;SDS011;40968;52.342;5.528;2023-03-14T03:09:36;22.40;;;3.55;;
43160;SDS011;40968;52.342;5.528;2023-03-14T03:12:03;17.48;;;3.22;;
43160;SDS011;40968;52.342;5.528;2023-03-14T03:14:30;17.90;;;3.25;;
43160;SDS011;40968;52.342;5.528;2023-03-14T03:16:56;18.50;;;2.97;;
43160;SDS011;40968;52.342;5.528;2023-03-14T03:19:24;11.68;;;2.90;;
43160;SDS011;40968;52.342;5.528;2023-03-14T03:21:51;17.45;;;3.30;;
43160;SDS011;40968;52.342;5.528;2023-03-14T03:24:17;12.20;;;3.30;;
43160;SDS011;40968;52.342;5.528;2023-03-14T03:26:44;16.48;;;3.10;;
43160;SDS011;40968;52.342;5.528;2023-03-14T03:29:10;9.15;;;2.70;;
43160;SDS011;40968;52.342;5.528;2023-03-14T03:31:37;17.38;;;3.15;;
43160;SDS011;40968;52.342;5.528;2023-03-14T03:34:04;14.93;;;3.53;;
43160;SDS011;40968;52.342;5.528;2023-03-14T03:36:32;15.18;;;3.67;;
43160;SDS011;40968;52.342;5.528;2023-03-14T03:39:00;28.10;;;4.95;;
43160;SDS011;40968;52.342;5.528;2023-03-14T03:41:26;11.20;;;3.25;;
43160;SDS011;40968;52.342;5.528;2023-03-14T03:43:53;19.38;;;4.45;;
43160;SDS011;40968;52.342;5.528;2023-03-14T03:46:19;15.45;;;4.05;;
43160;SDS011;40968;52.342;5.528;2023-03-14T03:48:46;18.08;;;4.20;;
43160;SDS011;40968;52.342;5.528;2023-03-14T03:51:13;12.98;;;3.88;;
43160;SDS011;40968;52.342;5.528;2023-03-14T03:53:41;26.55;;;3.45;;
43160;SDS011;40968;52.342;5.528;2023-03-14T03:56:09;17.70;;;3.22;;
43160;SDS011;40968;52.342;5.528;2023-03-14T03:58:35;11.45;;;3.80;;
43160;SDS011;40968;52.342;5.528;2023-03-14T04:01:04;11.15;;;3.00;;
43160;SDS011;40968;52.342;5.528;2023-03-14T04:03:31;11.63;;;3.08;;
43160;SDS011;40968;52.342;5.528;2023-03-14T04:05:58;13.07;;;3.63;;
43160;SDS011;40968;52.342;5.528;2023-03-14T04:08:25;10.27;;;3.38;;
43160;SDS011;40968;52.342;5.528;2023-03-14T04:10:55;19.88;;;3.40;;
43160;SDS011;40968;52.342;5.528;2023-03-14T04:13:22;17.08;;;3.40;;
43160;SDS011;40968;52.342;5.528;2023-03-14T04:15:49;18.25;;;3.35;;
43160;SDS011;40968;52.342;5.528;2023-03-14T04:18:15;16.38;;;3.53;;
43160;SDS011;40968;52.342;5.528;2023-03-14T04:20:42;25.20;;;4.30;;
43160;SDS011;40968;52.342;5.528;2023-03-14T04:23:09;20.80;;;3.72;;
43160;SDS011;40968;52.342;5.528;2023-03-14T04:25:35;17.23;;;3.53;;
43160;SDS011;40968;52.342;5.528;2023-03-14T04:28:03;18.00;;;4.05;;
43160;SDS011;40968;52.342;5.528;2023-03-14T04:30:30;17.00;;;3.90;;
43160;SDS011;40968;52.342;5.528;2023-03-14T04:32:57;12.07;;;3.10;;
43160;SDS011;40968;52.342;5.528;2023-03-14T04:35:23;19.65;;;4.68;;
43160;SDS011;40968;52.342;5.528;2023-03-14T04:37:50;12.73;;;3.20;;
43160;SDS011;40968;52.342;5.528;2023-03-14T04:40:17;15.10;;;3.78;;
43160;SDS011;40968;52.342;5.528;2023-03-14T04:42:44;19.50;;;4.13;;
43160;SDS011;40968;52.342;5.528;2023-03-14T04:45:12;15.18;;;3.75;;
43160;SDS011;40968;52.342;5.528;2023-03-14T04:47:39;14.70;;;3.60;;
43160;SDS011;40968;52.342;5.528;2023-03-14T04:50:06;15.35;;;3.25;;
43160;SDS011;40968;52.342;5.528;2023-03-14T04:52:34;15.88;;;3.25;;
43160;SDS011;40968;52.342;5.528;2023-03-14T04:55:00;19.95;;;3.38;;
43160;SDS011;40968;52.342;5.528;2023-03-14T04:57:27;29.13;;;4.40;;
43160;SDS011;40968;52.342;5.528;2023-03-14T04:59:54;10.88;;;3.60;;
43160;SDS011;40968;52.342;5.528;2023-03-14T05:02:22;12.77;;;4.93;;
43160;SDS011;40968;52.342;5.528;2023-03-14T05:04:48;16.83;;;4.13;;
43160;SDS011;40968;52.342;5.528;2023-03-14T05:07:15;15.65;;;3.95;;
43160;SDS011;40968;52.342;5.528;2023-03-14T05:09:42;22.50;;;3.95;;
43160;SDS011;40968;52.342;5.528;2023-03-14T05:12:08;7.82;;;3.03;;
43160;SDS011;40968;52.342;5.528;2023-03-14T05:14:35;17.65;;;4.03;;
43160;SDS011;40968;52.342;5.528;2023-03-14T05:17:01;18.67;;;3.80;;
43160;SDS011;40968;52.342;5.528;2023-03-14T05:19:29;15.30;;;3.50;;
43160;SDS011;40968;52.342;5.528;2023-03-14T05:21:56;26.65;;;4.70;;
43160;SDS011;40968;52.342;5.528;2023-03-14T05:24:23;19.92;;;3.75;;
43160;SDS011;40968;52.342;5.528;2023-03-14T05:26:49;15.77;;;4.13;;
43160;SDS011;40968;52.342;5.528;2023-03-14T05:29:16;16.98;;;4.97;;
43160;SDS011;40968;52.342;5.528;2023-03-14T05:31:42;16.77;;;3.95;;
43160;SDS011;40968;52.342;5.528;2023-03-14T05:34:09;17.92;;;4.15;;
43160;SDS011;40968;52.342;5.528;2023-03-14T05:36:37;14.77;;;4.10;;
43160;SDS011;40968;52.342;5.528;2023-03-14T05:39:04;19.45;;;4.70;;
43160;SDS011;40968;52.342;5.528;2023-03-14T05:41:30;18.08;;;4.30;;
43160;SDS011;40968;52.342;5.528;2023-03-14T05:43:57;14.57;;;4.10;;
43160;SDS011;40968;52.342;5.528;2023-03-14T05:46:24;20.88;;;4.78;;
43160;SDS011;40968;52.342;5.528;2023-03-14T05:48:50;14.07;;;4.65;;
43160;SDS011;40968;52.342;5.528;2023-03-14T05:51:17;19.65;;;5.18;;
43160;SDS011;40968;52.342;5.528;2023-03-14T05:53:45;17.38;;;4.90;;
43160;SDS011;40968;52.342;5.528;2023-03-14T05:56:11;17.42;;;4.88;;
43160;SDS011;40968;52.342;5.528;2023-03-14T05:58:38;13.23;;;4.68;;
43160;SDS011;40968;52.342;5.528;2023-03-14T06:01:05;16.45;;;4.70;;
43160;SDS011;40968;52.342;5.528;2023-03-14T06:03:32;17.73;;;4.78;;
43160;SDS011;40968;52.342;5.528;2023-03-14T06:05:59;25.80;;;5.75;;
43160;SDS011;40968;52.342;5.528;2023-03-14T06:08:26;18.65;;;5.22;;
43160;SDS011;40968;52.342;5.528;2023-03-14T06:10:54;15.75;;;4.80;;
43160;SDS011;40968;52.342;5.528;2023-03-14T06:13:22;28.85;;;5.68;;
43160;SDS011;40968;52.342;5.528;2023-03-14T06:15:49;24.90;;;5.18;;
43160;SDS011;40968;52.342;5.528;2023-03-14T06:18:15;14.43;;;4.95;;
43160;SDS011;40968;52.342;5.528;2023-03-14T06:20:42;15.40;;;5.35;;
43160;SDS011;40968;52.342;5.528;2023-03-14T06:23:09;17.05;;;5.30;;
43160;SDS011;40968;52.342;5.528;2023-03-14T06:25:35;22.20;;;6.18;;
43160;SDS011;40968;52.342;5.528;2023-03-14T06:28:04;20.88;;;6.30;;
43160;SDS011;40968;52.342;5.528;2023-03-14T06:30:31;26.90;;;6.13;;
43160;SDS011;40968;52.342;5.528;2023-03-14T06:32:57;18.15;;;5.95;;
43160;SDS011;40968;52.342;5.528;2023-03-14T06:35:24;12.40;;;3.30;;
43160;SDS011;40968;52.342;5.528;2023-03-14T06:37:50;12.02;;;1.75;;
43160;SDS011;40968;52.342;5.528;2023-03-14T06:40:17;8.13;;;1.30;;
43160;SDS011;40968;52.342;5.528;2023-03-14T06:42:44;5.13;;;1.27;;
43160;SDS011;40968;52.342;5.528;2023-03-14T06:45:12;6.82;;;1.13;;
43160;SDS011;40968;52.342;5.528;2023-03-14T06:47:39;9.25;;;1.65;;
43160;SDS011;40968;52.342;5.528;2023-03-14T06:50:06;6.18;;;1.50;;
43160;SDS011;40968;52.342;5.528;2023-03-14T06:52:34;4.88;;;1.42;;
43160;SDS011;40968;52.342;5.528;2023-03-14T06:55:01;7.75;;;1.52;;
43160;SDS011;40968;52.342;5.528;2023-03-14T06:57:28;8.43;;;1.40;;
43160;SDS011;40968;52.342;5.528;2023-03-14T06:59:55;8.27;;;1.55;;
43160;SDS011;40968;52.342;5.528;2023-03-14T07:02:23;5.93;;;1.55;;
43160;SDS011;40968;52.342;5.528;2023-03-14T07:04:50;8.25;;;1.70;;
43160;SDS011;40968;52.342;5.528;2023-03-14T07:07:16;3.70;;;1.00;;
43160;SDS011;40968;52.342;5.528;2023-03-14T07:09:43;3.53;;;1.40;;
43160;SDS011;40968;52.342;5.528;2023-03-14T07:12:09;3.33;;;1.10;;
43160;SDS011;40968;52.342;5.528;2023-03-14T07:14:36;3.42;;;0.90;;
43160;SDS011;40968;52.342;5.528;2023-03-14T07:17:03;1.77;;;0.90;;
43160;SDS011;40968;52.342;5.528;2023-03-14T07:19:31;5.75;;;1.13;;
43160;SDS011;40968;52.342;5.528;2023-03-14T07:21:57;3.42;;;1.48;;
43160;SDS011;40968;52.342;5.528;2023-03-14T07:24:24;3.85;;;0.93;;
43160;SDS011;40968;52.342;5.528;2023-03-14T07:26:50;2.97;;;0.88;;
43160;SDS011;40968;52.342;5.528;2023-03-14T07:29:17;8.75;;;1.85;;
43160;SDS011;40968;52.342;5.528;2023-03-14T07:31:44;5.88;;;1.40;;
43160;SDS011;40968;52.342;5.528;2023-03-14T07:34:10;7.18;;;1.50;;
43160;SDS011;40968;52.342;5.528;2023-03-14T07:36:38;9.52;;;2.38;;
43160;SDS011;40968;52.342;5.528;2023-03-14T07:39:05;15.45;;;2.40;;
43160;SDS011;40968;52.342;5.528;2023-03-14T07:41:32;15.48;;;2.60;;
43160;SDS011;40968;52.342;5.528;2023-03-14T07:43:58;18.98;;;2.90;;
43160;SDS011;40968;52.342;5.528;2023-03-14T07:46:25;16.88;;;2.25;;
43160;SDS011;40968;52.342;5.528;2023-03-14T07:48:51;8.45;;;1.70;;
43160;SDS011;40968;52.342;5.528;2023-03-14T07:51:18;18.80;;;2.42;;
43160;SDS011;40968;52.342;5.528;2023-03-14T07:53:46;8.15;;;1.70;;
43160;SDS011;40968;52.342;5.528;2023-03-14T07:56:13;8.52;;;1.85;;
43160;SDS011;40968;52.342;5.528;2023-03-14T07:58:39;14.80;;;2.58;;
43160;SDS011;40968;52.342;5.528;2023-03-14T08:01:06;7.82;;;1.80;;
43160;SDS011;40968;52.342;5.528;2023-03-14T08:03:33;7.97;;;1.60;;
43160;SDS011;40968;52.342;5.528;2023-03-14T08:05:59;9.27;;;2.00;;
43160;SDS011;40968;52.342;5.528;2023-03-14T08:08:26;4.15;;;1.20;;
43160;SDS011;40968;52.342;5.528;2023-03-14T08:10:53;4.65;;;1.08;;
43160;SDS011;40968;52.342;5.528;2023-03-14T08:13:20;6.25;;;1.27;;
43160;SDS011;40968;52.342;5.528;2023-03-14T08:15:48;6.75;;;1.60;;
43160;SDS011;40968;52.342;5.528;2023-03-14T08:18:16;4.97;;;1.40;;
43160;SDS011;40968;52.342;5.528;2023-03-14T08:20:42;13.48;;;1.98;;
43160;SDS011;40968;52.342;5.528;2023-03-14T08:23:09;3.28;;;1.20;;
43160;SDS011;40968;52.342;5.528;2023-03-14T08:25:37;8.95;;;2.05;;
43160;SDS011;40968;52.342;5.528;2023-03-14T08:28:05;8.38;;;1.42;;
43160;SDS011;40968;52.342;5.528;2023-03-14T08:30:32;10.43;;;1.27;;
43160;SDS011;40968;52.342;5.528;2023-03-14T08:32:58;4.05;;;1.10;;
43160;SDS011;40968;52.342;5.528;2023-03-14T08:35:25;4.55;;;0.90;;
43160;SDS011;40968;52.342;5.528;2023-03-14T08:37:52;9.93;;;1.45;;
43160;SDS011;40968;52.342;5.528;2023-03-14T08:40:19;6.38;;;1.10;;
43160;SDS011;40968;52.342;5.528;2023-03-14T08:42:46;9.00;;;1.00;;
43160;SDS011;40968;52.342;5.528;2023-03-14T08:45:15;5.97;;;1.90;;
43160;SDS011;40968;52.342;5.528;2023-03-14T08:47:42;4.75;;;1.02;;
43160;SDS011;40968;52.342;5.528;2023-03-14T08:50:11;10.50;;;1.60;;
43160;SDS011;40968;52.342;5.528;2023-03-14T08:52:39;5.90;;;1.77;;
43160;SDS011;40968;52.342;5.528;2023-03-14T08:55:06;4.50;;;1.95;;
43160;SDS011;40968;52.342;5.528;2023-03-14T08:57:34;19.38;;;1.90;;
43160;SDS011;40968;52.342;5.528;2023-03-14T09:00:02;16.02;;;2.03;;
43160;SDS011;40968;52.342;5.528;2023-03-14T09:02:35;9.68;;;2.38;;
43160;SDS011;40968;52.342;5.528;2023-03-14T09:05:01;9.75;;;2.42;;
43160;SDS011;40968;52.342;5.528;2023-03-14T09:07:28;10.95;;;2.60;;
43160;SDS011;40968;52.342;5.528;2023-03-14T09:09:55;12.38;;;2.00;;
43160;SDS011;40968;52.342;5.528;2023-03-14T09:12:21;7.25;;;1.80;;
43160;SDS011;40968;52.342;5.528;2023-03-14T09:14:48;10.25;;;2.65;;
43160;SDS011;40968;52.342;5.528;2023-03-14T09:17:15;14.55;;;2.80;;
43160;SDS011;40968;52.342;5.528;2023-03-14T09:19:43;13.50;;;2.60;;
43160;SDS011;40968;52.342;5.528;2023-03-14T09:22:09;17.48;;;3.10;;
43160;SDS011;40968;52.342;5.528;2023-03-14T09:24:36;16.10;;;3.40;;
43160;SDS011;40968;52.342;5.528;2023-03-14T09:27:03;15.23;;;3.25;;
43160;SDS011;40968;52.342;5.528;2023-03-14T09:29:29;9.50;;;2.90;;
43160;SDS011;40968;52.342;5.528;2023-03-14T09:31:56;24.77;;;4.28;;
43160;SDS011;40968;52.342;5.528;2023-03-14T09:34:24;22.13;;;3.22;;
43160;SDS011;40968;52.342;5.528;2023-03-14T09:36:52;17.00;;;3.08;;
43160;SDS011;40968;52.342;5.528;2023-03-14T09:39:19;21.90;;;3.25;;
43160;SDS011;40968;52.342;5.528;2023-03-14T09:41:46;19.95;;;3.67;;
43160;SDS011;40968;52.342;5.528;2023-03-14T09:44:15;19.65;;;3.63;;
43160;SDS011;40968;52.342;5.528;2023-03-14T09:46:46;15.98;;;3.50;;
43160;SDS011;40968;52.342;5.528;2023-03-14T09:49:17;19.83;;;3.70;;
43160;SDS011;40968;52.342;5.528;2023-03-14T09:51:47;25.58;;;4.00;;
43160;SDS011;40968;52.342;5.528;2023-03-14T09:54:22;21.45;;;4.63;;
43160;SDS011;40968;52.342;5.528;2023-03-14T09:56:56;22.05;;;4.78;;
43160;SDS011;40968;52.342;5.528;2023-03-14T09:59:22;14.38;;;3.50;;
43160;SDS011;40968;52.342;5.528;2023-03-14T10:01:49;22.70;;;3.13;;
43160;SDS011;40968;52.342;5.528;2023-03-14T10:04:17;12.55;;;3.30;;
43160;SDS011;40968;52.342;5.528;2023-03-14T10:06:48;14.02;;;3.53;;
43160;SDS011;40968;52.342;5.528;2023-03-14T10:09:15;17.45;;;3.80;;
43160;SDS011;40968;52.342;5.528;2023-03-14T10:11:51;18.10;;;3.83;;
43160;SDS011;40968;52.342;5.528;2023-03-14T10:14:31;17.20;;;3.00;;
43160;SDS011;40968;52.342;5.528;2023-03-14T10:17:06;29.02;;;3.85;;
43160;SDS011;40968;52.342;5.528;2023-03-14T10:19:34;18.88;;;3.42;;
43160;SDS011;40968;52.342;5.528;2023-03-14T10:22:02;16.95;;;4.22;;
43160;SDS011;40968;52.342;5.528;2023-03-14T10:24:30;33.58;;;4.63;;
43160;SDS011;40968;52.342;5.528;2023-03-14T10:27:00;19.23;;;4.25;;
43160;SDS011;40968;52.342;5.528;2023-03-14T10:29:29;24.77;;;4.97;;
43160;SDS011;40968;52.342;5.528;2023-03-14T10:31:58;22.20;;;4.13;;
43160;SDS011;40968;52.342;5.528;2023-03-14T10:34:27;30.75;;;6.03;;
43160;SDS011;40968;52.342;5.528;2023-03-14T10:36:56;28.13;;;5.82;;
43160;SDS011;40968;52.342;5.528;2023-03-14T10:39:29;25.05;;;4.05;;
43160;SDS011;40968;52.342;5.528;2023-03-14T10:42:06;27.55;;;4.90;;
43160;SDS011;40968;52.342;5.528;2023-03-14T10:44:41;25.20;;;4.90;;
43160;SDS011;40968;52.342;5.528;2023-03-14T10:47:12;20.55;;;4.95;;
43160;SDS011;40968;52.342;5.528;2023-03-14T10:49:44;22.70;;;4.03;;
43160;SDS011;40968;52.342;5.528;2023-03-14T10:52:17;26.15;;;5.00;;
43160;SDS011;40968;52.342;5.528;2023-03-14T10:54:48;19.58;;;3.75;;
43160;SDS011;40968;52.342;5.528;2023-03-14T10:57:21;27.45;;;4.85;;
43160;SDS011;40968;52.342;5.528;2023-03-14T10:59:47;18.35;;;3.78;;
43160;SDS011;40968;52.342;5.528;2023-03-14T11:02:25;23.80;;;3.90;;
43160;SDS011;40968;52.342;5.528;2023-03-14T11:05:04;17.17;;;3.65;;
43160;SDS011;40968;52.342;5.528;2023-03-14T11:07:39;23.20;;;5.05;;
43160;SDS011;40968;52.342;5.528;2023-03-14T11:10:14;26.27;;;4.90;;
43160;SDS011;40968;52.342;5.528;2023-03-14T11:12:51;17.65;;;3.65;;
43160;SDS011;40968;52.342;5.528;2023-03-14T11:15:32;25.98;;;4.93;;
43160;SDS011;40968;52.342;5.528;2023-03-14T11:18:12;24.67;;;3.72;;
43160;SDS011;40968;52.342;5.528;2023-03-14T11:20:51;17.90;;;3.58;;
43160;SDS011;40968;52.342;5.528;2023-03-14T11:23:20;23.80;;;3.60;;
43160;SDS011;40968;52.342;5.528;2023-03-14T11:25:50;22.70;;;3.90;;
43160;SDS011;40968;52.342;5.528;2023-03-14T11:28:25;18.10;;;3.72;;
43160;SDS011;40968;52.342;5.528;2023-03-14T11:31:00;14.30;;;3.08;;
43160;SDS011;40968;52.342;5.528;2023-03-14T11:33:37;13.98;;;2.80;;
43160;SDS011;40968;52.342;5.528;2023-03-14T11:36:06;16.23;;;3.35;;
43160;SDS011;40968;52.342;5.528;2023-03-14T11:38:36;11.65;;;2.40;;
43160;SDS011;40968;52.342;5.528;2023-03-14T11:41:09;10.20;;;2.60;;
43160;SDS011;40968;52.342;5.528;2023-03-14T11:43:41;20.92;;;3.55;;
43160;SDS011;40968;52.342;5.528;2023-03-14T11:46:14;16.08;;;2.58;;
43160;SDS011;40968;52.342;5.528;2023-03-14T11:48:45;16.73;;;2.97;;
43160;SDS011;40968;52.342;5.528;2023-03-14T11:51:21;21.65;;;2.88;;
43160;SDS011;40968;52.342;5.528;2023-03-14T11:53:53;24.80;;;3.40;;
43160;SDS011;40968;52.342;5.528;2023-03-14T11:56:26;10.27;;;3.15;;
43160;SDS011;40968;52.342;5.528;2023-03-14T11:59:01;23.88;;;3.53;;
43160;SDS011;40968;52.342;5.528;2023-03-14T12:01:36;13.93;;;2.58;;
43160;SDS011;40968;52.342;5.528;2023-03-14T12:04:12;22.63;;;2.67;;
43160;SDS011;40968;52.342;5.528;2023-03-14T12:06:46;18.27;;;2.85;;
43160;SDS011;40968;52.342;5.528;2023-03-14T12:09:14;18.17;;;3.33;;
43160;SDS011;40968;52.342;5.528;2023-03-14T12:11:43;15.05;;;3.08;;
43160;SDS011;40968;52.342;5.528;2023-03-14T12:14:20;21.63;;;3.20;;
43160;SDS011;40968;52.342;5.528;2023-03-14T12:16:50;11.48;;;3.10;;
43160;SDS011;40968;52.342;5.528;2023-03-14T12:19:26;11.63;;;2.25;;
43160;SDS011;40968;52.342;5.528;2023-03-14T12:21:57;22.38;;;3.72;;
43160;SDS011;40968;52.342;5.528;2023-03-14T12:24:28;14.07;;;2.95;;
43160;SDS011;40968;52.342;5.528;2023-03-14T12:26:57;7.28;;;1.95;;
43160;SDS011;40968;52.342;5.528;2023-03-14T12:29:27;9.55;;;2.22;;
43160;SDS011;40968;52.342;5.528;2023-03-14T12:32:09;14.73;;;2.47;;
43160;SDS011;40968;52.342;5.528;2023-03-14T12:34:48;7.47;;;2.55;;
43160;SDS011;40968;52.342;5.528;2023-03-14T12:40:05;13.82;;;2.00;;
43160;SDS011;40968;52.342;5.528;2023-03-14T12:42:51;11.90;;;2.00;;
43160;SDS011;40968;52.342;5.528;2023-03-14T12:45:26;11.27;;;1.83;;
43160;SDS011;40968;52.342;5.528;2023-03-14T12:47:55;13.85;;;2.10;;
43160;SDS011;40968;52.342;5.528;2023-03-14T12:50:32;9.77;;;2.15;;
43160;SDS011;40968;52.342;5.528;2023-03-14T12:56:24;12.60;;;2.35;;
43160;SDS011;40968;52.342;5.528;2023-03-14T12:59:05;11.27;;;2.15;;
43160;SDS011;40968;52.342;5.528;2023-03-14T13:01:48;7.45;;;2.05;;
43160;SDS011;40968;52.342;5.528;2023-03-14T13:04:25;13.20;;;1.88;;
43160;SDS011;40968;52.342;5.528;2023-03-14T13:06:54;11.25;;;2.35;;
43160;SDS011;40968;52.342;5.528;2023-03-14T13:12:23;11.77;;;2.55;;
43160;SDS011;40968;52.342;5.528;2023-03-14T13:14:57;20.95;;;2.75;;
43160;SDS011;40968;52.342;5.528;2023-03-14T13:17:27;10.27;;;1.85;;
43160;SDS011;40968;52.342;5.528;2023-03-14T13:19:57;9.75;;;1.88;;
43160;SDS011;40968;52.342;5.528;2023-03-14T13:22:30;9.45;;;1.70;;
43160;SDS011;40968;52.342;5.528;2023-03-14T13:25:02;14.13;;;2.22;;
43160;SDS011;40968;52.342;5.528;2023-03-14T13:27:30;10.30;;;2.10;;
43160;SDS011;40968;52.342;5.528;2023-03-14T13:30:04;13.25;;;2.38;;
43160;SDS011;40968;52.342;5.528;2023-03-14T13:32:33;13.68;;;2.10;;
43160;SDS011;40968;52.342;5.528;2023-03-14T13:35:00;26.05;;;3.78;;
43160;SDS011;40968;52.342;5.528;2023-03-14T13:37:26;10.60;;;2.10;;
43160;SDS011;40968;52.342;5.528;2023-03-14T13:39:54;15.98;;;2.33;;
43160;SDS011;40968;52.342;5.528;2023-03-14T13:42:24;10.13;;;1.90;;
43160;SDS011;40968;52.342;5.528;2023-03-14T13:44:52;11.45;;;2.10;;
43160;SDS011;40968;52.342;5.528;2023-03-14T13:47:21;7.68;;;1.80;;
43160;SDS011;40968;52.342;5.528;2023-03-14T13:49:51;6.32;;;2.28;;
43160;SDS011;40968;52.342;5.528;2023-03-14T13:52:22;14.93;;;2.20;;
43160;SDS011;40968;52.342;5.528;2023-03-14T13:54:52;4.72;;;1.52;;
43160;SDS011;40968;52.342;5.528;2023-03-14T13:57:19;4.57;;;1.70;;
43160;SDS011;40968;52.342;5.528;2023-03-14T13:59:47;8.48;;;1.75;;
43160;SDS011;40968;52.342;5.528;2023-03-14T14:02:24;7.90;;;1.90;;
43160;SDS011;40968;52.342;5.528;2023-03-14T14:04:54;13.18;;;2.00;;
43160;SDS011;40968;52.342;5.528;2023-03-14T14:07:22;5.45;;;1.52;;
43160;SDS011;40968;52.342;5.528;2023-03-14T14:09:50;9.60;;;2.03;;
43160;SDS011;40968;52.342;5.528;2023-03-14T14:12:20;10.25;;;1.83;;
43160;SDS011;40968;52.342;5.528;2023-03-14T14:14:53;5.25;;;1.77;;
43160;SDS011;40968;52.342;5.528;2023-03-14T14:17:24;12.82;;;2.03;;
43160;SDS011;40968;52.342;5.528;2023-03-14T14:19:55;8.27;;;1.85;;
43160;SDS011;40968;52.342;5.528;2023-03-14T14:22:22;20.20;;;2.30;;
43160;SDS011;40968;52.342;5.528;2023-03-14T14:24:49;11.77;;;2.42;;
43160;SDS011;40968;52.342;5.528;2023-03-14T14:27:17;13.48;;;2.38;;
43160;SDS011;40968;52.342;5.528;2023-03-14T14:29:56;16.35;;;2.30;;
43160;SDS011;40968;52.342;5.528;2023-03-14T14:32:25;12.27;;;2.42;;
43160;SDS011;40968;52.342;5.528;2023-03-14T14:34:57;7.60;;;1.98;;
43160;SDS011;40968;52.342;5.528;2023-03-14T14:37:26;8.13;;;1.88;;
43160;SDS011;40968;52.342;5.528;2023-03-14T14:39:54;19.17;;;2.30;;
43160;SDS011;40968;52.342;5.528;2023-03-14T14:42:24;12.93;;;2.50;;
43160;SDS011;40968;52.342;5.528;2023-03-14T14:44:53;9.75;;;2.08;;
43160;SDS011;40968;52.342;5.528;2023-03-14T14:47:21;24.80;;;3.35;;
43160;SDS011;40968;52.342;5.528;2023-03-14T14:49:50;10.32;;;1.88;;
43160;SDS011;40968;52.342;5.528;2023-03-14T14:52:20;64.95;;;5.45;;
43160;SDS011;40968;52.342;5.528;2023-03-14T14:54:51;16.98;;;1.98;;
43160;SDS011;40968;52.342;5.528;2023-03-14T14:57:21;26.45;;;2.35;;